sensor_id;sensor_type;location;lat;lon;timestamp;P1;durP1;ratioP1;P2;durP2;ratioP2
18125;SDS011;53956;52.442;13.284;2022-08-18T00:01:54;11.52;;;8.50;;
18125;SDS011;53956;52.442;13.284;2022-08-18T00:04:27;12.68;;;8.45;;
18125;SDS011;53956;52.442;13.284;2022-08-18T00:06:53;9.55;;;8.55;;
18125;SDS011;53956;52.442;13.284;2022-08-18T00:09:20;13.30;;;8.70;;
18125;SDS011;53956;52.442;13.284;2022-08-18T00:11:48;12.70;;;8.75;;
18125;SDS011;53956;52.442;13.284;2022-08-18T00:14:16;12.45;;;8.50;;
18125;SDS011;53956;52.442;13.284;2022-08-18T00:16:44;9.77;;;8.75;;
18125;SDS011;53956;52.442;13.284;2022-08-18T00:19:11;10.30;;;8.70;;
18125;SDS011;53956;52.442;13.284;2022-08-18T00:21:38;13.90;;;9.07;;
18125;SDS011;53956;52.442;13.284;2022-08-18T00:24:05;11.70;;;8.80;;
18125;SDS011;53956;52.442;13.284;2022-08-18T00:26:32;10.95;;;8.93;;
18125;SDS011;53956;52.442;13.284;2022-08-18T00:29:00;9.80;;;8.52;;
18125;SDS011;53956;52.442;13.284;2022-08-18T00:31:27;12.77;;;9.20;;
18125;SDS011;53956;52.442;13.284;2022-08-18T00:33:53;11.63;;;8.93;;
18125;SDS011;53956;52.442;13.284;2022-08-18T00:36:20;11.27;;;8.82;;
18125;SDS011;53956;52.442;13.284;2022-08-18T00:38:47;9.65;;;8.23;;
18125;SDS011;53956;52.442;13.284;2022-08-18T00:41:13;11.55;;;8.85;;
18125;SDS011;53956;52.442;13.284;2022-08-18T00:43:42;10.25;;;8.65;;
18125;SDS011;53956;52.442;13.284;2022-08-18T00:46:13;10.88;;;8.57;;
18125;SDS011;53956;52.442;13.284;2022-08-18T00:48:42;12.93;;;9.13;;
18125;SDS011;53956;52.442;13.284;2022-08-18T00:51:09;11.07;;;8.75;;
18125;SDS011;53956;52.442;13.284;2022-08-18T00:53:40;12.13;;;9.20;;
18125;SDS011;53956;52.442;13.284;2022-08-18T00:56:10;15.05;;;8.98;;
18125;SDS011;53956;52.442;13.284;2022-08-18T00:58:41;11.48;;;8.98;;
18125;SDS011;53956;52.442;13.284;2022-08-18T01:01:12;13.98;;;9.23;;
18125;SDS011;53956;52.442;13.284;2022-08-18T01:03:40;14.02;;;9.10;;
18125;SDS011;53956;52.442;13.284;2022-08-18T01:06:20;10.52;;;9.07;;
18125;SDS011;53956;52.442;13.284;2022-08-18T01:08:52;10.88;;;8.88;;
18125;SDS011;53956;52.442;13.284;2022-08-18T01:11:20;12.18;;;9.50;;
18125;SDS011;53956;52.442;13.284;2022-08-18T01:13:47;10.48;;;8.88;;
18125;SDS011;53956;52.442;13.284;2022-08-18T01:16:15;11.55;;;9.27;;
18125;SDS011;53956;52.442;13.284;2022-08-18T01:19:00;11.93;;;8.90;;
18125;SDS011;53956;52.442;13.284;2022-08-18T01:21:45;11.50;;;9.32;;
18125;SDS011;53956;52.442;13.284;2022-08-18T01:24:17;13.40;;;9.02;;
18125;SDS011;53956;52.442;13.284;2022-08-18T01:26:46;11.45;;;9.27;;
18125;SDS011;53956;52.442;13.284;2022-08-18T01:29:15;12.20;;;9.85;;
18125;SDS011;53956;52.442;13.284;2022-08-18T01:31:44;12.55;;;9.77;;
18125;SDS011;53956;52.442;13.284;2022-08-18T01:34:18;10.70;;;9.60;;
18125;SDS011;53956;52.442;13.284;2022-08-18T01:36:48;14.32;;;9.60;;
18125;SDS011;53956;52.442;13.284;2022-08-18T01:39:19;13.20;;;10.10;;
18125;SDS011;53956;52.442;13.284;2022-08-18T01:41:46;11.88;;;9.73;;
18125;SDS011;53956;52.442;13.284;2022-08-18T01:44:13;12.93;;;10.05;;
18125;SDS011;53956;52.442;13.284;2022-08-18T01:46:41;12.63;;;9.35;;
18125;SDS011;53956;52.442;13.284;2022-08-18T01:49:09;11.80;;;9.32;;
18125;SDS011;53956;52.442;13.284;2022-08-18T01:51:37;13.15;;;9.75;;
18125;SDS011;53956;52.442;13.284;2022-08-18T01:54:07;14.45;;;10.10;;
18125;SDS011;53956;52.442;13.284;2022-08-18T01:56:38;11.70;;;9.73;;
18125;SDS011;53956;52.442;13.284;2022-08-18T01:59:06;15.20;;;9.95;;
18125;SDS011;53956;52.442;13.284;2022-08-18T02:01:39;14.45;;;10.27;;
18125;SDS011;53956;52.442;13.284;2022-08-18T02:04:07;11.88;;;9.77;;
18125;SDS011;53956;52.442;13.284;2022-08-18T02:06:36;13.73;;;10.10;;
18125;SDS011;53956;52.442;13.284;2022-08-18T02:09:03;11.63;;;9.65;;
18125;SDS011;53956;52.442;13.284;2022-08-18T02:11:30;12.15;;;9.98;;
18125;SDS011;53956;52.442;13.284;2022-08-18T02:13:58;13.25;;;10.57;;
18125;SDS011;53956;52.442;13.284;2022-08-18T02:16:25;13.48;;;10.43;;
18125;SDS011;53956;52.442;13.284;2022-08-18T02:18:51;11.18;;;10.00;;
18125;SDS011;53956;52.442;13.284;2022-08-18T02:21:18;14.85;;;9.68;;
18125;SDS011;53956;52.442;13.284;2022-08-18T02:23:46;12.93;;;9.65;;
18125;SDS011;53956;52.442;13.284;2022-08-18T02:26:14;12.73;;;10.15;;
18125;SDS011;53956;52.442;13.284;2022-08-18T02:28:42;12.00;;;10.02;;
18125;SDS011;53956;52.442;13.284;2022-08-18T02:31:11;15.52;;;10.43;;
18125;SDS011;53956;52.442;13.284;2022-08-18T02:33:40;13.93;;;9.77;;
18125;SDS011;53956;52.442;13.284;2022-08-18T02:36:07;11.30;;;10.10;;
18125;SDS011;53956;52.442;13.284;2022-08-18T02:38:35;11.95;;;10.13;;
18125;SDS011;53956;52.442;13.284;2022-08-18T02:41:02;12.27;;;10.23;;
18125;SDS011;53956;52.442;13.284;2022-08-18T02:43:32;12.88;;;10.25;;
18125;SDS011;53956;52.442;13.284;2022-08-18T02:45:58;14.93;;;10.57;;
18125;SDS011;53956;52.442;13.284;2022-08-18T02:48:26;12.05;;;10.30;;
18125;SDS011;53956;52.442;13.284;2022-08-18T02:50:58;13.15;;;10.90;;
18125;SDS011;53956;52.442;13.284;2022-08-18T02:53:26;13.15;;;10.93;;
18125;SDS011;53956;52.442;13.284;2022-08-18T02:55:53;12.60;;;9.80;;
18125;SDS011;53956;52.442;13.284;2022-08-18T02:58:20;15.05;;;10.50;;
18125;SDS011;53956;52.442;13.284;2022-08-18T03:00:47;12.95;;;10.13;;
18125;SDS011;53956;52.442;13.284;2022-08-18T03:03:14;11.75;;;10.48;;
18125;SDS011;53956;52.442;13.284;2022-08-18T03:05:42;12.45;;;10.57;;
18125;SDS011;53956;52.442;13.284;2022-08-18T03:08:08;13.95;;;10.75;;
18125;SDS011;53956;52.442;13.284;2022-08-18T03:10:35;13.15;;;10.52;;
18125;SDS011;53956;52.442;13.284;2022-08-18T03:13:02;12.38;;;10.07;;
18125;SDS011;53956;52.442;13.284;2022-08-18T03:15:29;13.63;;;10.70;;
18125;SDS011;53956;52.442;13.284;2022-08-18T03:17:56;16.10;;;11.38;;
18125;SDS011;53956;52.442;13.284;2022-08-18T03:20:23;14.48;;;10.43;;
18125;SDS011;53956;52.442;13.284;2022-08-18T03:22:52;12.70;;;10.73;;
18125;SDS011;53956;52.442;13.284;2022-08-18T03:25:19;14.95;;;10.90;;
18125;SDS011;53956;52.442;13.284;2022-08-18T03:27:45;15.85;;;10.48;;
18125;SDS011;53956;52.442;13.284;2022-08-18T03:30:12;12.77;;;10.90;;
18125;SDS011;53956;52.442;13.284;2022-08-18T03:32:39;12.45;;;10.95;;
18125;SDS011;53956;52.442;13.284;2022-08-18T03:35:06;15.52;;;11.05;;
18125;SDS011;53956;52.442;13.284;2022-08-18T03:37:33;15.43;;;11.38;;
18125;SDS011;53956;52.442;13.284;2022-08-18T03:40:02;14.70;;;11.50;;
18125;SDS011;53956;52.442;13.284;2022-08-18T03:42:29;14.48;;;11.88;;
18125;SDS011;53956;52.442;13.284;2022-08-18T03:44:56;14.65;;;11.38;;
18125;SDS011;53956;52.442;13.284;2022-08-18T03:47:22;16.58;;;11.25;;
18125;SDS011;53956;52.442;13.284;2022-08-18T03:49:49;16.45;;;12.05;;
18125;SDS011;53956;52.442;13.284;2022-08-18T03:52:16;17.02;;;12.57;;
18125;SDS011;53956;52.442;13.284;2022-08-18T03:54:42;16.40;;;12.13;;
18125;SDS011;53956;52.442;13.284;2022-08-18T03:57:11;15.45;;;12.65;;
18125;SDS011;53956;52.442;13.284;2022-08-18T03:59:38;17.02;;;12.45;;
18125;SDS011;53956;52.442;13.284;2022-08-18T04:02:07;14.68;;;11.63;;
18125;SDS011;53956;52.442;13.284;2022-08-18T04:04:35;13.52;;;12.02;;
18125;SDS011;53956;52.442;13.284;2022-08-18T04:07:05;12.85;;;11.55;;
18125;SDS011;53956;52.442;13.284;2022-08-18T04:09:35;20.40;;;12.90;;
18125;SDS011;53956;52.442;13.284;2022-08-18T04:12:04;16.77;;;12.38;;
18125;SDS011;53956;52.442;13.284;2022-08-18T04:14:38;12.90;;;11.43;;
18125;SDS011;53956;52.442;13.284;2022-08-18T04:17:06;16.60;;;12.25;;
18125;SDS011;53956;52.442;13.284;2022-08-18T04:19:34;17.00;;;12.13;;
18125;SDS011;53956;52.442;13.284;2022-08-18T04:22:02;16.83;;;12.20;;
18125;SDS011;53956;52.442;13.284;2022-08-18T04:24:30;16.58;;;12.70;;
18125;SDS011;53956;52.442;13.284;2022-08-18T04:26:59;18.80;;;13.10;;
18125;SDS011;53956;52.442;13.284;2022-08-18T04:29:28;15.48;;;13.40;;
18125;SDS011;53956;52.442;13.284;2022-08-18T04:31:58;15.68;;;12.77;;
18125;SDS011;53956;52.442;13.284;2022-08-18T04:34:26;14.98;;;12.20;;
18125;SDS011;53956;52.442;13.284;2022-08-18T04:36:53;14.45;;;12.55;;
18125;SDS011;53956;52.442;13.284;2022-08-18T04:39:20;16.38;;;13.35;;
18125;SDS011;53956;52.442;13.284;2022-08-18T04:41:48;18.73;;;12.82;;
18125;SDS011;53956;52.442;13.284;2022-08-18T04:44:15;15.30;;;13.55;;
18125;SDS011;53956;52.442;13.284;2022-08-18T04:46:43;15.88;;;12.93;;
18125;SDS011;53956;52.442;13.284;2022-08-18T04:49:14;16.25;;;12.55;;
18125;SDS011;53956;52.442;13.284;2022-08-18T04:51:41;16.38;;;13.18;;
18125;SDS011;53956;52.442;13.284;2022-08-18T04:54:30;17.52;;;12.65;;
18125;SDS011;53956;52.442;13.284;2022-08-18T04:56:56;17.13;;;13.70;;
18125;SDS011;53956;52.442;13.284;2022-08-18T04:59:23;20.88;;;13.63;;
18125;SDS011;53956;52.442;13.284;2022-08-18T05:01:49;18.38;;;13.52;;
18125;SDS011;53956;52.442;13.284;2022-08-18T05:04:17;17.42;;;14.10;;
18125;SDS011;53956;52.442;13.284;2022-08-18T05:06:44;16.25;;;13.50;;
18125;SDS011;53956;52.442;13.284;2022-08-18T05:09:12;15.32;;;13.10;;
18125;SDS011;53956;52.442;13.284;2022-08-18T05:11:40;17.48;;;13.77;;
18125;SDS011;53956;52.442;13.284;2022-08-18T05:14:08;18.55;;;13.57;;
18125;SDS011;53956;52.442;13.284;2022-08-18T05:16:35;21.10;;;13.43;;
18125;SDS011;53956;52.442;13.284;2022-08-18T05:19:04;18.55;;;13.52;;
18125;SDS011;53956;52.442;13.284;2022-08-18T05:21:33;18.25;;;13.20;;
18125;SDS011;53956;52.442;13.284;2022-08-18T05:24:01;16.20;;;13.02;;
18125;SDS011;53956;52.442;13.284;2022-08-18T05:26:29;16.08;;;13.68;;
18125;SDS011;53956;52.442;13.284;2022-08-18T05:28:56;17.33;;;13.45;;
18125;SDS011;53956;52.442;13.284;2022-08-18T05:31:24;17.25;;;13.23;;
18125;SDS011;53956;52.442;13.284;2022-08-18T05:33:53;18.95;;;13.48;;
18125;SDS011;53956;52.442;13.284;2022-08-18T05:36:26;16.45;;;13.50;;
18125;SDS011;53956;52.442;13.284;2022-08-18T05:39:13;17.90;;;13.35;;
18125;SDS011;53956;52.442;13.284;2022-08-18T05:41:47;17.65;;;13.32;;
18125;SDS011;53956;52.442;13.284;2022-08-18T05:44:17;20.25;;;13.45;;
18125;SDS011;53956;52.442;13.284;2022-08-18T05:46:50;17.35;;;13.48;;
18125;SDS011;53956;52.442;13.284;2022-08-18T05:49:19;18.38;;;12.73;;
18125;SDS011;53956;52.442;13.284;2022-08-18T05:51:48;14.55;;;12.27;;
18125;SDS011;53956;52.442;13.284;2022-08-18T05:54:18;17.92;;;13.20;;
18125;SDS011;53956;52.442;13.284;2022-08-18T05:57:05;16.00;;;12.80;;
18125;SDS011;53956;52.442;13.284;2022-08-18T05:59:35;20.13;;;13.38;;
18125;SDS011;53956;52.442;13.284;2022-08-18T06:02:05;16.30;;;12.52;;
18125;SDS011;53956;52.442;13.284;2022-08-18T06:04:42;19.38;;;12.40;;
18125;SDS011;53956;52.442;13.284;2022-08-18T06:07:15;16.20;;;12.20;;
18125;SDS011;53956;52.442;13.284;2022-08-18T06:09:45;15.30;;;12.32;;
18125;SDS011;53956;52.442;13.284;2022-08-18T06:12:19;14.95;;;11.63;;
18125;SDS011;53956;52.442;13.284;2022-08-18T06:14:50;13.73;;;11.20;;
18125;SDS011;53956;52.442;13.284;2022-08-18T06:17:30;17.58;;;11.50;;
18125;SDS011;53956;52.442;13.284;2022-08-18T06:20:11;18.20;;;11.25;;
18125;SDS011;53956;52.442;13.284;2022-08-18T06:22:47;14.52;;;10.98;;
18125;SDS011;53956;52.442;13.284;2022-08-18T06:25:22;13.10;;;11.20;;
18125;SDS011;53956;52.442;13.284;2022-08-18T06:27:59;17.73;;;11.02;;
18125;SDS011;53956;52.442;13.284;2022-08-18T06:30:39;14.45;;;11.18;;
18125;SDS011;53956;52.442;13.284;2022-08-18T06:33:16;17.40;;;10.50;;
18125;SDS011;53956;52.442;13.284;2022-08-18T06:35:58;15.75;;;10.68;;
18125;SDS011;53956;52.442;13.284;2022-08-18T06:38:34;16.80;;;11.07;;
18125;SDS011;53956;52.442;13.284;2022-08-18T06:41:15;14.88;;;11.35;;
18125;SDS011;53956;52.442;13.284;2022-08-18T06:43:49;14.90;;;11.32;;
18125;SDS011;53956;52.442;13.284;2022-08-18T06:46:25;14.20;;;11.15;;
18125;SDS011;53956;52.442;13.284;2022-08-18T06:48:58;15.25;;;11.45;;
18125;SDS011;53956;52.442;13.284;2022-08-18T06:51:29;16.40;;;11.52;;
18125;SDS011;53956;52.442;13.284;2022-08-18T06:53:59;16.83;;;11.70;;
18125;SDS011;53956;52.442;13.284;2022-08-18T06:56:31;15.63;;;11.57;;
18125;SDS011;53956;52.442;13.284;2022-08-18T06:59:15;20.70;;;11.63;;
18125;SDS011;53956;52.442;13.284;2022-08-18T07:01:44;17.50;;;11.52;;
18125;SDS011;53956;52.442;13.284;2022-08-18T07:06:56;14.45;;;11.60;;
18125;SDS011;53956;52.442;13.284;2022-08-18T07:09:24;19.27;;;11.95;;
18125;SDS011;53956;52.442;13.284;2022-08-18T07:12:00;12.43;;;11.15;;
18125;SDS011;53956;52.442;13.284;2022-08-18T07:14:29;17.70;;;11.63;;
18125;SDS011;53956;52.442;13.284;2022-08-18T07:17:06;17.20;;;11.73;;
18125;SDS011;53956;52.442;13.284;2022-08-18T07:19:35;14.00;;;11.90;;
18125;SDS011;53956;52.442;13.284;2022-08-18T07:22:04;15.82;;;12.27;;
18125;SDS011;53956;52.442;13.284;2022-08-18T07:24:37;18.17;;;13.05;;
18125;SDS011;53956;52.442;13.284;2022-08-18T07:27:07;13.63;;;12.02;;
18125;SDS011;53956;52.442;13.284;2022-08-18T07:29:36;19.33;;;12.10;;
18125;SDS011;53956;52.442;13.284;2022-08-18T07:32:07;17.80;;;12.52;;
18125;SDS011;53956;52.442;13.284;2022-08-18T07:34:37;16.52;;;11.77;;
18125;SDS011;53956;52.442;13.284;2022-08-18T07:37:08;17.92;;;12.57;;
18125;SDS011;53956;52.442;13.284;2022-08-18T07:39:44;19.23;;;12.27;;
18125;SDS011;53956;52.442;13.284;2022-08-18T07:42:16;14.05;;;11.98;;
18125;SDS011;53956;52.442;13.284;2022-08-18T07:44:52;16.85;;;12.82;;
18125;SDS011;53956;52.442;13.284;2022-08-18T07:47:24;18.35;;;12.52;;
18125;SDS011;53956;52.442;13.284;2022-08-18T07:49:57;13.73;;;12.07;;
18125;SDS011;53956;52.442;13.284;2022-08-18T07:52:24;14.00;;;12.10;;
18125;SDS011;53956;52.442;13.284;2022-08-18T07:54:58;19.58;;;12.68;;
18125;SDS011;53956;52.442;13.284;2022-08-18T07:57:36;16.27;;;11.88;;
18125;SDS011;53956;52.442;13.284;2022-08-18T08:00:12;20.42;;;12.20;;
18125;SDS011;53956;52.442;13.284;2022-08-18T08:02:47;18.98;;;12.18;;
18125;SDS011;53956;52.442;13.284;2022-08-18T08:05:27;17.05;;;12.43;;
18125;SDS011;53956;52.442;13.284;2022-08-18T08:08:04;15.32;;;12.07;;
18125;SDS011;53956;52.442;13.284;2022-08-18T08:10:46;18.02;;;12.32;;
18125;SDS011;53956;52.442;13.284;2022-08-18T08:13:20;19.33;;;12.65;;
18125;SDS011;53956;52.442;13.284;2022-08-18T08:15:53;17.02;;;12.35;;
18125;SDS011;53956;52.442;13.284;2022-08-18T08:18:28;20.33;;;12.63;;
18125;SDS011;53956;52.442;13.284;2022-08-18T08:21:04;16.75;;;12.65;;
18125;SDS011;53956;52.442;13.284;2022-08-18T08:23:37;16.58;;;12.93;;
18125;SDS011;53956;52.442;13.284;2022-08-18T08:26:19;20.80;;;13.65;;
18125;SDS011;53956;52.442;13.284;2022-08-18T08:28:54;21.58;;;12.55;;
18125;SDS011;53956;52.442;13.284;2022-08-18T08:31:31;20.50;;;13.13;;
18125;SDS011;53956;52.442;13.284;2022-08-18T08:34:08;15.93;;;13.18;;
18125;SDS011;53956;52.442;13.284;2022-08-18T08:36:41;18.98;;;13.38;;
18125;SDS011;53956;52.442;13.284;2022-08-18T08:39:11;16.50;;;12.50;;
18125;SDS011;53956;52.442;13.284;2022-08-18T08:41:47;18.15;;;13.55;;
18125;SDS011;53956;52.442;13.284;2022-08-18T08:44:19;18.27;;;12.93;;
18125;SDS011;53956;52.442;13.284;2022-08-18T08:46:50;15.80;;;13.00;;
18125;SDS011;53956;52.442;13.284;2022-08-18T08:49:24;16.80;;;13.00;;
18125;SDS011;53956;52.442;13.284;2022-08-18T08:51:57;17.58;;;12.40;;
18125;SDS011;53956;52.442;13.284;2022-08-18T08:54:30;15.10;;;13.38;;
18125;SDS011;53956;52.442;13.284;2022-08-18T08:57:06;19.15;;;12.98;;
18125;SDS011;53956;52.442;13.284;2022-08-18T08:59:36;14.20;;;12.40;;
18125;SDS011;53956;52.442;13.284;2022-08-18T09:02:10;19.58;;;12.70;;
18125;SDS011;53956;52.442;13.284;2022-08-18T09:04:51;16.63;;;13.02;;
18125;SDS011;53956;52.442;13.284;2022-08-18T09:07:26;17.15;;;12.65;;
18125;SDS011;53956;52.442;13.284;2022-08-18T09:10:08;21.67;;;12.63;;
18125;SDS011;53956;52.442;13.284;2022-08-18T09:12:57;14.90;;;12.27;;
18125;SDS011;53956;52.442;13.284;2022-08-18T09:15:41;17.88;;;12.23;;
18125;SDS011;53956;52.442;13.284;2022-08-18T09:18:28;20.05;;;12.15;;
18125;SDS011;53956;52.442;13.284;2022-08-18T09:21:12;14.35;;;12.43;;
18125;SDS011;53956;52.442;13.284;2022-08-18T09:23:52;14.00;;;12.40;;
18125;SDS011;53956;52.442;13.284;2022-08-18T09:26:37;14.45;;;12.20;;
18125;SDS011;53956;52.442;13.284;2022-08-18T09:29:15;18.33;;;12.80;;
18125;SDS011;53956;52.442;13.284;2022-08-18T09:31:47;17.02;;;11.85;;
18125;SDS011;53956;52.442;13.284;2022-08-18T09:34:39;13.15;;;11.75;;
18125;SDS011;53956;52.442;13.284;2022-08-18T09:37:16;13.23;;;11.07;;
18125;SDS011;53956;52.442;13.284;2022-08-18T09:39:50;14.07;;;11.57;;
18125;SDS011;53956;52.442;13.284;2022-08-18T09:42:42;14.10;;;11.32;;
18125;SDS011;53956;52.442;13.284;2022-08-18T09:48:23;14.52;;;11.60;;
18125;SDS011;53956;52.442;13.284;2022-08-18T09:50:56;13.18;;;11.20;;
18125;SDS011;53956;52.442;13.284;2022-08-18T09:53:53;14.75;;;11.55;;
18125;SDS011;53956;52.442;13.284;2022-08-18T09:56:55;16.02;;;11.57;;
18125;SDS011;53956;52.442;13.284;2022-08-18T09:59:52;13.88;;;11.38;;
18125;SDS011;53956;52.442;13.284;2022-08-18T10:05:38;13.35;;;11.45;;
18125;SDS011;53956;52.442;13.284;2022-08-18T10:08:31;17.58;;;11.70;;
18125;SDS011;53956;52.442;13.284;2022-08-18T10:11:22;20.30;;;11.95;;
18125;SDS011;53956;52.442;13.284;2022-08-18T10:14:11;13.07;;;10.80;;
18125;SDS011;53956;52.442;13.284;2022-08-18T10:16:52;16.38;;;11.32;;
18125;SDS011;53956;52.442;13.284;2022-08-18T10:19:28;14.50;;;11.05;;
18125;SDS011;53956;52.442;13.284;2022-08-18T10:22:03;15.82;;;12.05;;
18125;SDS011;53956;52.442;13.284;2022-08-18T10:24:32;16.77;;;11.88;;
18125;SDS011;53956;52.442;13.284;2022-08-18T10:27:02;20.70;;;12.48;;
18125;SDS011;53956;52.442;13.284;2022-08-18T10:29:44;20.20;;;12.68;;
18125;SDS011;53956;52.442;13.284;2022-08-18T10:38:20;14.27;;;12.27;;
18125;SDS011;53956;52.442;13.284;2022-08-18T10:40:52;15.63;;;11.63;;
18125;SDS011;53956;52.442;13.284;2022-08-18T10:43:25;17.55;;;11.63;;
18125;SDS011;53956;52.442;13.284;2022-08-18T10:46:02;17.73;;;11.25;;
18125;SDS011;53956;52.442;13.284;2022-08-18T10:48:33;20.90;;;12.85;;
18125;SDS011;53956;52.442;13.284;2022-08-18T10:51:05;20.13;;;12.80;;
18125;SDS011;53956;52.442;13.284;2022-08-18T10:53:43;20.23;;;11.35;;
18125;SDS011;53956;52.442;13.284;2022-08-18T10:56:20;15.20;;;11.25;;
18125;SDS011;53956;52.442;13.284;2022-08-18T10:58:57;17.98;;;10.90;;
18125;SDS011;53956;52.442;13.284;2022-08-18T11:01:43;21.42;;;11.77;;
18125;SDS011;53956;52.442;13.284;2022-08-18T11:04:24;14.23;;;10.27;;
18125;SDS011;53956;52.442;13.284;2022-08-18T11:06:57;15.82;;;10.70;;
18125;SDS011;53956;52.442;13.284;2022-08-18T11:09:31;16.27;;;10.38;;
18125;SDS011;53956;52.442;13.284;2022-08-18T11:11:59;15.18;;;9.98;;
18125;SDS011;53956;52.442;13.284;2022-08-18T11:17:42;14.25;;;9.73;;
18125;SDS011;53956;52.442;13.284;2022-08-18T11:20:15;14.32;;;10.43;;
18125;SDS011;53956;52.442;13.284;2022-08-18T11:22:49;16.55;;;10.65;;
18125;SDS011;53956;52.442;13.284;2022-08-18T11:25:21;14.60;;;9.57;;
18125;SDS011;53956;52.442;13.284;2022-08-18T11:27:51;15.63;;;9.38;;
18125;SDS011;53956;52.442;13.284;2022-08-18T11:30:18;11.27;;;9.13;;
18125;SDS011;53956;52.442;13.284;2022-08-18T11:32:45;15.80;;;9.07;;
18125;SDS011;53956;52.442;13.284;2022-08-18T11:35:15;14.27;;;8.90;;
18125;SDS011;53956;52.442;13.284;2022-08-18T11:37:45;11.45;;;9.02;;
18125;SDS011;53956;52.442;13.284;2022-08-18T11:40:25;13.43;;;8.90;;
18125;SDS011;53956;52.442;13.284;2022-08-18T11:42:59;12.88;;;9.07;;
18125;SDS011;53956;52.442;13.284;2022-08-18T11:45:28;11.77;;;8.65;;
18125;SDS011;53956;52.442;13.284;2022-08-18T11:47:59;12.80;;;9.88;;
18125;SDS011;53956;52.442;13.284;2022-08-18T11:50:43;11.77;;;8.50;;
18125;SDS011;53956;52.442;13.284;2022-08-18T11:53:12;17.70;;;8.85;;
18125;SDS011;53956;52.442;13.284;2022-08-18T11:55:44;12.50;;;7.88;;
18125;SDS011;53956;52.442;13.284;2022-08-18T11:58:10;17.13;;;9.85;;
18125;SDS011;53956;52.442;13.284;2022-08-18T12:01:03;29.45;;;18.35;;
18125;SDS011;53956;52.442;13.284;2022-08-18T12:03:36;16.85;;;11.10;;
18125;SDS011;53956;52.442;13.284;2022-08-18T12:06:10;29.25;;;16.95;;
18125;SDS011;53956;52.442;13.284;2022-08-18T12:08:47;24.30;;;15.77;;
18125;SDS011;53956;52.442;13.284;2022-08-18T12:11:21;14.15;;;9.75;;
18125;SDS011;53956;52.442;13.284;2022-08-18T12:13:56;13.00;;;9.80;;
18125;SDS011;53956;52.442;13.284;2022-08-18T12:16:37;10.05;;;7.65;;
18125;SDS011;53956;52.442;13.284;2022-08-18T12:19:05;10.57;;;8.85;;
18125;SDS011;53956;52.442;13.284;2022-08-18T12:21:35;9.32;;;7.38;;
18125;SDS011;53956;52.442;13.284;2022-08-18T12:24:04;10.98;;;7.68;;
18125;SDS011;53956;52.442;13.284;2022-08-18T12:26:36;13.30;;;9.07;;
18125;SDS011;53956;52.442;13.284;2022-08-18T12:29:02;14.80;;;9.95;;
18125;SDS011;53956;52.442;13.284;2022-08-18T12:31:29;13.55;;;10.40;;
18125;SDS011;53956;52.442;13.284;2022-08-18T12:33:56;15.80;;;10.25;;
18125;SDS011;53956;52.442;13.284;2022-08-18T12:36:22;13.85;;;10.32;;
18125;SDS011;53956;52.442;13.284;2022-08-18T12:38:49;12.55;;;10.05;;
18125;SDS011;53956;52.442;13.284;2022-08-18T12:41:17;10.85;;;9.70;;
18125;SDS011;53956;52.442;13.284;2022-08-18T12:43:45;12.85;;;9.98;;
18125;SDS011;53956;52.442;13.284;2022-08-18T12:46:11;16.02;;;9.85;;
18125;SDS011;53956;52.442;13.284;2022-08-18T12:48:38;11.98;;;9.98;;
18125;SDS011;53956;52.442;13.284;2022-08-18T12:51:05;14.35;;;9.60;;
18125;SDS011;53956;52.442;13.284;2022-08-18T12:53:32;10.63;;;8.98;;
18125;SDS011;53956;52.442;13.284;2022-08-18T12:55:59;9.68;;;8.77;;
18125;SDS011;53956;52.442;13.284;2022-08-18T12:58:26;11.48;;;8.98;;
18125;SDS011;53956;52.442;13.284;2022-08-18T13:00:55;11.18;;;9.00;;
18125;SDS011;53956;52.442;13.284;2022-08-18T13:03:22;13.77;;;8.98;;
18125;SDS011;53956;52.442;13.284;2022-08-18T13:05:48;9.93;;;8.80;;
18125;SDS011;53956;52.442;13.284;2022-08-18T13:08:17;13.48;;;9.18;;
18125;SDS011;53956;52.442;13.284;2022-08-18T13:10:46;11.85;;;8.48;;
18125;SDS011;53956;52.442;13.284;2022-08-18T13:13:14;10.48;;;8.65;;
18125;SDS011;53956;52.442;13.284;2022-08-18T13:15:42;12.20;;;8.63;;
18125;SDS011;53956;52.442;13.284;2022-08-18T13:18:11;10.77;;;8.48;;
18125;SDS011;53956;52.442;13.284;2022-08-18T13:20:38;12.05;;;8.73;;
18125;SDS011;53956;52.442;13.284;2022-08-18T13:23:05;12.32;;;8.30;;
18125;SDS011;53956;52.442;13.284;2022-08-18T13:25:32;12.07;;;7.80;;
18125;SDS011;53956;52.442;13.284;2022-08-18T13:27:59;11.13;;;7.43;;
18125;SDS011;53956;52.442;13.284;2022-08-18T13:30:26;8.85;;;7.45;;
18125;SDS011;53956;52.442;13.284;2022-08-18T13:32:52;10.60;;;7.57;;
18125;SDS011;53956;52.442;13.284;2022-08-18T13:35:20;10.35;;;7.57;;
18125;SDS011;53956;52.442;13.284;2022-08-18T13:37:47;13.15;;;7.50;;
18125;SDS011;53956;52.442;13.284;2022-08-18T13:40:14;8.85;;;7.03;;
18125;SDS011;53956;52.442;13.284;2022-08-18T13:42:43;10.38;;;6.80;;
18125;SDS011;53956;52.442;13.284;2022-08-18T13:45:12;11.93;;;6.78;;
18125;SDS011;53956;52.442;13.284;2022-08-18T13:47:41;8.25;;;6.75;;
18125;SDS011;53956;52.442;13.284;2022-08-18T13:50:08;10.35;;;7.30;;
18125;SDS011;53956;52.442;13.284;2022-08-18T13:52:37;8.10;;;6.38;;
18125;SDS011;53956;52.442;13.284;2022-08-18T13:55:06;12.60;;;7.30;;
18125;SDS011;53956;52.442;13.284;2022-08-18T13:57:35;10.70;;;7.15;;
18125;SDS011;53956;52.442;13.284;2022-08-18T14:00:02;9.00;;;6.53;;
18125;SDS011;53956;52.442;13.284;2022-08-18T14:02:32;9.27;;;7.38;;
18125;SDS011;53956;52.442;13.284;2022-08-18T14:04:59;10.15;;;7.05;;
18125;SDS011;53956;52.442;13.284;2022-08-18T14:07:26;12.35;;;6.97;;
18125;SDS011;53956;52.442;13.284;2022-08-18T14:09:54;9.55;;;6.95;;
18125;SDS011;53956;52.442;13.284;2022-08-18T14:12:21;8.00;;;6.72;;
18125;SDS011;53956;52.442;13.284;2022-08-18T14:14:49;8.15;;;7.30;;
18125;SDS011;53956;52.442;13.284;2022-08-18T14:17:16;9.23;;;7.60;;
18125;SDS011;53956;52.442;13.284;2022-08-18T14:19:43;9.95;;;7.90;;
18125;SDS011;53956;52.442;13.284;2022-08-18T14:22:27;10.45;;;7.53;;
18125;SDS011;53956;52.442;13.284;2022-08-18T14:25:13;9.13;;;7.70;;
18125;SDS011;53956;52.442;13.284;2022-08-18T14:27:58;10.73;;;7.78;;
18125;SDS011;53956;52.442;13.284;2022-08-18T14:30:25;13.68;;;8.05;;
18125;SDS011;53956;52.442;13.284;2022-08-18T14:32:51;11.50;;;8.40;;
18125;SDS011;53956;52.442;13.284;2022-08-18T14:35:18;10.35;;;8.30;;
18125;SDS011;53956;52.442;13.284;2022-08-18T14:37:46;9.05;;;7.97;;
18125;SDS011;53956;52.442;13.284;2022-08-18T14:40:14;9.38;;;8.23;;
18125;SDS011;53956;52.442;13.284;2022-08-18T14:42:44;10.80;;;7.93;;
18125;SDS011;53956;52.442;13.284;2022-08-18T14:45:11;8.82;;;7.65;;
18125;SDS011;53956;52.442;13.284;2022-08-18T14:47:39;12.10;;;7.50;;
18125;SDS011;53956;52.442;13.284;2022-08-18T14:50:07;11.50;;;7.70;;
18125;SDS011;53956;52.442;13.284;2022-08-18T14:52:38;14.45;;;7.95;;
18125;SDS011;53956;52.442;13.284;2022-08-18T14:55:06;8.27;;;7.47;;
18125;SDS011;53956;52.442;13.284;2022-08-18T14:57:36;9.55;;;7.88;;